createdAt,value
2022-09-30T00:00:56.576Z,3.64
2022-09-30T00:03:27.397Z,3.62
2022-09-30T00:05:57.727Z,3.62
2022-09-30T00:08:25.135Z,3.61
2022-09-30T00:11:03.880Z,3.55
2022-09-30T00:13:31.707Z,3.53
2022-09-30T00:15:58.738Z,3.53
2022-09-30T00:18:27.413Z,3.49
2022-09-30T00:20:54.599Z,3.47
2022-09-30T00:23:22.356Z,3.47
2022-09-30T00:25:49.673Z,3.50
2022-09-30T00:28:17.057Z,3.44
2022-09-30T00:30:43.839Z,3.37
2022-09-30T00:33:10.587Z,3.38
2022-09-30T00:35:38.721Z,3.36
2022-09-30T00:38:05.438Z,3.25
2022-09-30T00:40:32.193Z,3.29
2022-09-30T00:42:59.247Z,3.30
2022-09-30T00:45:28.830Z,3.34
2022-09-30T00:48:01.339Z,3.40
2022-09-30T00:50:34.991Z,3.43
2022-09-30T00:53:12.203Z,3.41
2022-09-30T00:55:46.398Z,3.34
2022-09-30T00:58:23.052Z,3.28
2022-09-30T01:00:51.861Z,3.25
2022-09-30T01:03:22.491Z,3.22
2022-09-30T01:05:49.495Z,3.19
2022-09-30T01:08:19.609Z,3.19
2022-09-30T01:10:46.745Z,3.24
2022-09-30T01:13:14.951Z,3.22
2022-09-30T01:15:58.863Z,3.21
2022-09-30T01:18:33.194Z,3.17
2022-09-30T01:21:41.055Z,3.23
2022-09-30T01:24:37.247Z,3.28
2022-09-30T01:27:22.669Z,3.32
2022-09-30T01:30:09.386Z,3.33
2022-09-30T01:32:49.299Z,3.35
2022-09-30T01:35:25.335Z,3.30
2022-09-30T01:38:03.653Z,3.33
2022-09-30T01:40:43.012Z,3.41
2022-09-30T01:43:16.280Z,3.43
2022-09-30T01:45:47.679Z,3.37
2022-09-30T01:48:21.337Z,3.32
2022-09-30T01:50:54.010Z,3.30
2022-09-30T01:53:27.807Z,3.26
2022-09-30T01:56:00.774Z,3.19
2022-09-30T01:58:37.294Z,3.11
2022-09-30T02:01:08.692Z,3.13
2022-09-30T02:03:39.893Z,3.21
2022-09-30T02:06:10.986Z,3.24
2022-09-30T02:08:42.315Z,3.22
2022-09-30T02:11:14.806Z,3.07
2022-09-30T02:13:45.828Z,3.01
2022-09-30T02:16:18.144Z,2.99
2022-09-30T02:18:48.388Z,2.94
2022-09-30T02:21:19.945Z,2.91
2022-09-30T02:23:49.408Z,2.93
2022-09-30T02:26:20.339Z,2.84
2022-09-30T02:28:53.371Z,2.80
2022-09-30T02:31:23.974Z,2.74
2022-09-30T02:33:56.761Z,2.66
2022-09-30T02:36:29.289Z,2.60
2022-09-30T02:39:01.645Z,2.59
2022-09-30T02:41:31.625Z,2.58
2022-09-30T02:44:00.289Z,-147.88
2022-09-30T02:46:36.599Z,-147.88
2022-09-30T02:49:08.094Z,-147.88
2022-09-30T02:51:41.085Z,2.49
2022-09-30T02:54:17.824Z,2.55
2022-09-30T02:56:51.143Z,2.59
2022-09-30T02:59:18.174Z,2.62
2022-09-30T03:01:45.753Z,2.59
2022-09-30T03:04:16.508Z,2.52
2022-09-30T03:06:43.568Z,2.46
2022-09-30T03:09:10.513Z,2.39
2022-09-30T03:11:38.281Z,2.37
2022-09-30T03:14:43.448Z,2.29
2022-09-30T03:17:32.327Z,2.31
2022-09-30T03:20:28.220Z,2.26
2022-09-30T03:23:14.364Z,2.19
2022-09-30T03:25:49.343Z,2.15
2022-09-30T03:28:25.180Z,2.16
2022-09-30T03:31:01.932Z,2.11
2022-09-30T03:33:40.088Z,2.11
2022-09-30T03:36:19.923Z,2.06
2022-09-30T03:38:52.715Z,2.09
2022-09-30T03:41:27.425Z,2.14
2022-09-30T03:44:01.429Z,2.12
2022-09-30T03:46:32.613Z,2.11
2022-09-30T03:49:02.613Z,2.17
2022-09-30T03:51:32.060Z,2.26
2022-09-30T03:53:59.108Z,2.22
2022-09-30T03:56:27.470Z,2.14
2022-09-30T03:58:54.461Z,2.13
2022-09-30T04:01:21.531Z,2.10
2022-09-30T04:03:48.662Z,1.97
2022-09-30T04:06:15.645Z,1.98
2022-09-30T04:08:44.430Z,1.97
2022-09-30T04:11:11.645Z,1.92
2022-09-30T04:13:38.375Z,-147.88
2022-09-30T04:16:05.685Z,-147.88
2022-09-30T04:18:32.402Z,-147.88
2022-09-30T04:20:59.252Z,-147.88
2022-09-30T04:23:25.962Z,-147.88
2022-09-30T04:25:54.523Z,-147.88
2022-09-30T04:28:21.404Z,-147.88
2022-09-30T04:30:48.124Z,-147.88
2022-09-30T04:33:14.927Z,-147.88
2022-09-30T04:35:54.199Z,-147.88
2022-09-30T04:38:21.094Z,-147.88
2022-09-30T04:40:49.590Z,-147.88
2022-09-30T04:43:19.086Z,1.77
2022-09-30T04:45:46.599Z,1.64
2022-09-30T04:48:14.001Z,1.67
2022-09-30T04:50:40.993Z,1.65
2022-09-30T04:53:07.947Z,1.69
2022-09-30T04:55:34.866Z,1.70
2022-09-30T04:58:01.718Z,1.66
2022-09-30T05:00:30.211Z,1.61
2022-09-30T05:02:57.712Z,1.61
2022-09-30T05:05:24.508Z,1.59
2022-09-30T05:07:51.352Z,1.59
2022-09-30T05:10:18.213Z,1.63
2022-09-30T05:12:45.892Z,1.65
2022-09-30T05:15:12.605Z,1.56
2022-09-30T05:17:41.062Z,1.61
2022-09-30T05:20:10.811Z,1.64
2022-09-30T05:22:38.327Z,1.63
2022-09-30T05:25:06.284Z,1.63
2022-09-30T05:27:34.156Z,1.65
2022-09-30T05:30:01.212Z,1.65
2022-09-30T05:32:27.905Z,1.62
2022-09-30T05:34:56.463Z,1.68
2022-09-30T05:37:23.538Z,1.66
2022-09-30T05:39:50.928Z,1.64
2022-09-30T05:42:17.706Z,1.67
2022-09-30T05:44:44.362Z,1.68
2022-09-30T05:47:11.633Z,1.70
2022-09-30T05:49:39.200Z,1.75
2022-09-30T05:52:07.865Z,1.79
2022-09-30T05:54:34.557Z,1.82
2022-09-30T05:57:01.263Z,1.85
2022-09-30T05:59:27.916Z,1.90
2022-09-30T06:01:54.687Z,1.95
2022-09-30T06:04:22.646Z,2.00
2022-09-30T06:06:49.304Z,2.08
2022-09-30T06:09:18.163Z,2.18
2022-09-30T06:11:45.252Z,2.29
2022-09-30T06:14:12.011Z,2.36
2022-09-30T06:16:38.758Z,2.43
2022-09-30T06:19:06.261Z,2.52
2022-09-30T06:21:33.094Z,2.61
2022-09-30T06:24:00.720Z,2.71
2022-09-30T06:26:28.990Z,2.82
2022-09-30T06:28:56.437Z,2.90
2022-09-30T06:31:24.002Z,3.00
2022-09-30T06:33:53.118Z,3.06
2022-09-30T06:36:19.567Z,3.16
2022-09-30T06:38:51.442Z,3.29
2022-09-30T06:41:18.305Z,3.42
2022-09-30T06:43:55.795Z,3.54
2022-09-30T06:46:29.599Z,3.63
2022-09-30T06:49:09.763Z,3.76
2022-09-30T06:51:39.410Z,4.00
2022-09-30T06:54:06.170Z,4.42
2022-09-30T06:56:32.916Z,4.42
2022-09-30T06:59:01.786Z,4.67
2022-09-30T07:01:31.466Z,4.69
2022-09-30T07:03:58.306Z,4.75
2022-09-30T07:06:26.476Z,4.84
2022-09-30T07:08:54.189Z,4.90
2022-09-30T07:11:21.063Z,5.01
2022-09-30T07:13:49.261Z,5.09
2022-09-30T07:16:19.937Z,5.18
2022-09-30T07:18:47.570Z,5.41
2022-09-30T07:21:16.267Z,5.65
2022-09-30T07:23:50.941Z,5.82
2022-09-30T07:26:19.831Z,6.02
2022-09-30T07:28:47.476Z,6.21
2022-09-30T07:31:35.358Z,6.35
2022-09-30T07:34:03.472Z,6.49
2022-09-30T07:36:33.635Z,6.62
2022-09-30T07:39:06.005Z,6.79
2022-09-30T07:41:35.986Z,6.96
2022-09-30T07:44:06.629Z,7.07
2022-09-30T07:46:38.904Z,-147.88
2022-09-30T07:49:09.175Z,7.53
2022-09-30T07:51:38.843Z,-147.88
2022-09-30T07:54:08.662Z,-147.88
2022-09-30T07:57:05.217Z,-147.88
2022-09-30T07:59:25.789Z,-147.88
2022-09-30T08:01:54.226Z,8.41
2022-09-30T08:04:24.258Z,8.54
2022-09-30T08:06:54.352Z,8.76
2022-09-30T08:09:22.823Z,9.05
2022-09-30T08:11:50.705Z,9.21
2022-09-30T08:14:20.697Z,9.38
2022-09-30T08:16:48.268Z,9.72
2022-09-30T08:19:18.553Z,9.83
2022-09-30T08:21:46.404Z,9.81
2022-09-30T08:24:13.531Z,9.93
2022-09-30T08:26:41.321Z,10.12
2022-09-30T08:29:12.365Z,10.15
2022-09-30T08:31:41.736Z,-147.88
2022-09-30T08:34:08.760Z,-147.88
2022-09-30T08:36:36.898Z,-147.88
2022-09-30T08:39:04.014Z,-147.88
2022-09-30T08:41:47.337Z,-147.88
2022-09-30T08:44:32.559Z,-147.88
2022-09-30T08:47:12.080Z,-147.88
2022-09-30T08:49:49.747Z,-147.88
2022-09-30T08:52:30.501Z,-147.88
2022-09-30T08:55:06.301Z,-147.88
2022-09-30T08:57:37.215Z,-147.88
2022-09-30T09:00:09.192Z,-147.88
2022-09-30T09:02:45.106Z,-147.88
2022-09-30T09:05:32.153Z,-147.88
2022-09-30T09:08:09.114Z,-147.88
2022-09-30T09:10:43.415Z,-147.88
2022-09-30T09:13:36.736Z,-147.88
2022-09-30T09:16:12.836Z,-147.88
2022-09-30T09:18:52.882Z,-147.88
2022-09-30T09:21:28.307Z,-147.88
2022-09-30T09:24:00.823Z,-147.88
2022-09-30T09:26:33.065Z,-147.88
2022-09-30T09:29:10.947Z,-147.88
2022-09-30T09:31:38.408Z,-147.88
2022-09-30T09:34:11.057Z,-147.88
2022-09-30T09:36:53.586Z,-147.88
2022-09-30T09:39:47.585Z,-147.88
2022-09-30T09:42:31.999Z,-147.88
2022-09-30T09:45:02.787Z,-147.88
2022-09-30T09:47:29.645Z,-147.88
2022-09-30T09:49:59.331Z,-147.88
2022-09-30T09:52:42.540Z,-147.88
2022-09-30T09:55:12.317Z,-147.88
2022-09-30T09:57:40.279Z,-147.88
2022-09-30T10:00:28.036Z,-147.88
2022-09-30T10:03:04.183Z,-147.88
2022-09-30T13:31:13.020Z,-147.88
2022-09-30T13:33:44.981Z,-147.88
2022-09-30T13:36:32.572Z,-147.88
2022-09-30T13:39:25.742Z,-147.88
2022-09-30T13:42:11.504Z,-147.88
2022-09-30T13:44:57.505Z,-147.88
2022-09-30T13:47:33.820Z,-147.88
2022-09-30T13:50:06.575Z,-147.88
2022-09-30T13:52:38.267Z,-147.88
2022-09-30T13:55:11.267Z,-147.88
2022-09-30T13:57:49.057Z,-147.88
2022-09-30T14:00:19.058Z,-147.88
2022-09-30T14:03:07.866Z,-147.88
2022-09-30T14:05:53.520Z,-147.88
2022-09-30T14:08:51.802Z,-147.88
2022-09-30T14:11:33.363Z,-147.88
2022-09-30T14:14:14.063Z,-147.88
2022-09-30T14:17:01.524Z,-147.88
2022-09-30T14:19:46.219Z,-147.88
2022-09-30T14:22:15.731Z,-147.88
2022-09-30T14:24:43.518Z,-147.88
2022-09-30T14:27:36.246Z,-147.88
2022-09-30T14:30:14.244Z,-147.88
2022-09-30T14:32:46.464Z,-147.88
2022-09-30T14:35:18.938Z,-147.88
2022-09-30T14:37:51.043Z,-147.88
2022-09-30T14:40:20.151Z,-147.88
2022-09-30T14:42:49.138Z,-147.88
2022-09-30T14:45:26.664Z,-147.88
2022-09-30T14:47:58.417Z,-147.88
2022-09-30T14:50:31.293Z,-147.88
2022-09-30T14:53:00.603Z,-147.88
2022-09-30T14:55:30.505Z,-147.88
2022-09-30T14:58:21.746Z,-147.88
2022-09-30T15:00:58.327Z,-147.88
2022-09-30T15:03:27.025Z,-147.88
2022-09-30T15:05:55.876Z,-147.88
2022-09-30T15:08:24.108Z,-147.88
2022-09-30T15:10:54.956Z,-147.88
2022-09-30T15:13:24.989Z,-147.88
2022-09-30T15:15:53.423Z,-147.88
2022-09-30T15:18:34.175Z,-147.88
2022-09-30T15:21:09.047Z,-147.88
2022-09-30T15:23:39.827Z,-147.88
2022-09-30T15:26:07.295Z,-147.88
2022-09-30T15:28:36.972Z,-147.88
2022-09-30T15:31:05.266Z,-147.88
2022-09-30T15:33:33.007Z,-147.88
2022-09-30T15:36:07.423Z,-147.88
2022-09-30T15:38:37.534Z,-147.88
2022-09-30T15:41:07.232Z,-147.88
2022-09-30T15:43:37.753Z,-147.88
2022-09-30T15:46:24.447Z,-147.88
2022-09-30T15:48:51.904Z,-147.88
2022-09-30T15:51:39.269Z,-147.88
2022-09-30T15:54:29.233Z,-147.88
2022-09-30T15:56:56.578Z,-147.88
2022-09-30T16:00:00.008Z,-147.88
2022-09-30T16:02:28.537Z,-147.88
2022-09-30T16:04:55.746Z,-147.88
2022-09-30T16:07:28.981Z,-147.88
2022-09-30T16:09:59.256Z,-147.88
2022-09-30T16:12:29.770Z,-147.88
2022-09-30T16:15:00.505Z,-147.88
2022-09-30T16:17:29.905Z,-147.88
2022-09-30T16:19:58.861Z,-147.88
2022-09-30T16:22:50.344Z,-147.88
2022-09-30T16:25:21.139Z,-147.88
2022-09-30T16:27:48.921Z,-147.88
2022-09-30T16:30:17.876Z,-147.88
2022-09-30T16:32:48.780Z,-147.88
2022-09-30T16:38:21.021Z,-147.88
2022-09-30T16:40:47.939Z,-147.88
2022-09-30T16:43:14.778Z,-147.88
2022-09-30T16:45:42.697Z,-147.88
2022-09-30T16:48:14.514Z,-147.88
2022-09-30T16:50:45.970Z,-147.88
2022-09-30T16:53:14.909Z,-147.88
2022-09-30T16:55:41.967Z,-147.88
2022-09-30T16:58:12.318Z,-147.88
2022-09-30T17:00:44.378Z,-147.88
2022-09-30T17:03:14.995Z,-147.88
2022-09-30T17:05:43.019Z,-147.88
2022-09-30T17:08:13.849Z,-147.88
2022-09-30T17:10:44.153Z,-147.88
2022-09-30T17:13:11.054Z,-147.88
2022-09-30T17:15:37.966Z,-147.88
2022-09-30T17:18:07.429Z,-147.88
2022-09-30T17:20:35.278Z,-147.88
2022-09-30T17:23:06.967Z,-147.88
2022-09-30T17:25:34.492Z,-147.88
2022-09-30T17:28:02.945Z,-147.88
2022-09-30T17:30:30.255Z,-147.88
2022-09-30T17:32:57.205Z,-147.88
2022-09-30T17:35:23.826Z,-147.88
2022-09-30T17:37:50.678Z,-147.88
2022-09-30T17:40:37.249Z,-147.88
2022-09-30T17:43:11.293Z,-147.88
2022-09-30T17:45:40.606Z,-147.88
2022-09-30T17:48:09.059Z,-147.88
2022-09-30T17:50:36.780Z,-147.88
2022-09-30T17:53:04.385Z,-147.88
2022-09-30T17:55:31.520Z,-147.88
2022-09-30T17:57:59.058Z,-147.88
2022-09-30T18:00:29.421Z,-147.88
2022-09-30T18:02:56.700Z,-147.88
2022-09-30T18:05:25.967Z,-147.88
2022-09-30T18:07:53.212Z,-147.88
2022-09-30T18:10:20.305Z,-147.88
2022-09-30T18:12:49.393Z,-147.88
2022-09-30T18:15:17.023Z,-147.88
2022-09-30T18:17:45.412Z,-147.88
2022-09-30T18:20:13.429Z,-147.88
2022-09-30T18:22:40.507Z,-147.88
2022-09-30T18:25:20.502Z,-147.88
2022-09-30T18:27:48.244Z,-147.88
2022-09-30T18:30:15.334Z,-147.88
2022-09-30T18:32:42.221Z,-147.88
2022-09-30T18:35:13.513Z,-147.88
2022-09-30T18:37:42.406Z,-147.88
2022-09-30T18:40:11.639Z,-147.88
2022-09-30T18:42:38.692Z,-147.88
2022-09-30T18:45:08.370Z,-147.88
2022-09-30T18:47:35.313Z,-147.88
2022-09-30T18:50:02.026Z,-147.88
2022-09-30T18:52:30.100Z,-147.88
2022-09-30T18:54:56.759Z,-147.88
2022-09-30T18:57:23.537Z,-147.88
2022-09-30T18:59:50.395Z,-147.88
2022-09-30T19:02:18.155Z,-147.88
2022-09-30T19:04:46.275Z,-147.88
2022-09-30T19:07:13.039Z,-147.88
2022-09-30T19:09:41.888Z,-147.88
2022-09-30T19:12:08.828Z,-147.88
2022-09-30T19:14:38.055Z,-147.88
2022-09-30T19:17:05.337Z,-147.88
2022-09-30T19:19:42.056Z,-147.88
2022-09-30T19:22:11.425Z,-147.88
2022-09-30T19:24:38.617Z,-147.88
2022-09-30T19:27:06.794Z,-147.88
2022-09-30T19:29:34.396Z,-147.88
2022-09-30T19:32:03.587Z,-147.88
2022-09-30T19:34:32.613Z,-147.88
2022-09-30T19:37:00.039Z,-147.88
2022-09-30T19:39:38.533Z,-147.88
2022-09-30T19:42:16.910Z,-147.88
2022-09-30T19:44:43.788Z,-147.88
2022-09-30T19:47:12.189Z,-147.88
2022-09-30T19:49:39.202Z,-147.88
2022-09-30T19:52:15.101Z,-147.88
2022-09-30T19:54:43.637Z,-147.88
2022-09-30T19:57:11.925Z,-147.88
2022-09-30T19:59:41.928Z,-147.88
2022-09-30T20:02:11.009Z,-147.88
2022-09-30T20:04:39.006Z,-147.88
2022-09-30T20:07:05.948Z,-147.88
2022-09-30T20:09:32.759Z,-147.88
2022-09-30T20:11:59.472Z,-147.88
2022-09-30T20:14:46.625Z,-147.88
2022-09-30T20:17:13.791Z,-147.88
2022-09-30T20:19:41.856Z,-147.88
2022-09-30T20:22:10.099Z,6.74
2022-09-30T20:24:38.269Z,6.69
2022-09-30T20:27:05.073Z,6.73
2022-09-30T20:29:34.322Z,-147.88
2022-09-30T20:32:04.417Z,-147.88
2022-09-30T20:34:37.947Z,-147.88
2022-09-30T20:37:06.092Z,-147.88
2022-09-30T20:39:34.604Z,-147.88
2022-09-30T20:42:02.930Z,-147.88
2022-09-30T20:44:29.718Z,-147.88
2022-09-30T20:46:58.374Z,-147.88
2022-09-30T20:49:25.572Z,-147.88
2022-09-30T20:51:52.387Z,-147.88
2022-09-30T20:54:19.101Z,-147.88
2022-09-30T20:57:06.442Z,-147.88
2022-09-30T20:59:32.883Z,-147.88
2022-09-30T21:02:01.002Z,-147.88
2022-09-30T21:04:27.894Z,-147.88
2022-09-30T21:06:55.009Z,-147.88
2022-09-30T21:09:22.547Z,-147.88
2022-09-30T21:11:49.253Z,-147.88
2022-09-30T21:14:18.089Z,-147.88
2022-09-30T21:16:44.823Z,-147.88
2022-09-30T21:19:12.999Z,-147.88
2022-09-30T21:21:39.786Z,-147.88
2022-09-30T21:24:06.831Z,-147.88
2022-09-30T21:26:33.478Z,-147.88
2022-09-30T21:29:00.229Z,-147.88
2022-09-30T21:31:27.882Z,-147.88
2022-09-30T21:33:56.384Z,-147.88
2022-09-30T21:36:25.645Z,-147.88
2022-09-30T21:38:53.023Z,-147.88
2022-09-30T21:41:20.592Z,-147.88
2022-09-30T21:43:47.911Z,-147.88
2022-09-30T21:46:15.902Z,-147.88
2022-09-30T21:48:43.043Z,-147.88
2022-09-30T21:51:10.235Z,-147.88
2022-09-30T21:53:39.581Z,-147.88
2022-09-30T21:56:08.203Z,6.73
2022-09-30T21:58:36.459Z,-147.88
2022-09-30T22:01:05.898Z,-147.88
2022-09-30T22:03:37.503Z,-147.88
2022-09-30T22:06:07.556Z,-147.88
2022-09-30T22:08:36.149Z,-147.88
2022-09-30T22:11:07.948Z,8.49
2022-09-30T22:13:34.663Z,8.57
2022-09-30T22:16:07.079Z,8.71
2022-09-30T22:18:35.993Z,8.82
2022-09-30T22:21:04.766Z,8.97
2022-09-30T22:23:32.142Z,8.99
2022-09-30T22:26:09.221Z,8.95
2022-09-30T22:28:36.926Z,8.99
2022-09-30T22:31:14.540Z,8.98
2022-09-30T22:34:01.428Z,8.97
2022-09-30T22:36:46.824Z,8.98
2022-09-30T22:39:14.535Z,9.01
2022-09-30T22:41:42.954Z,9.13
2022-09-30T22:44:09.668Z,-147.88
2022-09-30T22:46:38.599Z,9.27
2022-09-30T22:49:06.123Z,9.27
2022-09-30T22:51:33.117Z,9.58
2022-09-30T22:54:00.319Z,9.55
2022-09-30T22:56:27.397Z,9.63
2022-09-30T22:58:55.584Z,9.62
2022-09-30T23:01:22.450Z,9.65
2022-09-30T23:03:53.779Z,9.70
2022-09-30T23:06:21.809Z,9.67
2022-09-30T23:08:49.336Z,9.59
2022-09-30T23:11:17.353Z,9.60
2022-09-30T23:13:46.182Z,9.68
2022-09-30T23:16:15.663Z,9.61
2022-09-30T23:18:45.056Z,9.67
2022-09-30T23:21:12.988Z,9.68
2022-09-30T23:23:40.072Z,9.68
2022-09-30T23:26:08.951Z,9.65
2022-09-30T23:28:35.952Z,9.69
2022-09-30T23:31:03.944Z,9.67
2022-09-30T23:33:32.010Z,9.61
2022-09-30T23:36:01.257Z,9.61
2022-09-30T23:38:28.671Z,9.66
2022-09-30T23:40:59.015Z,9.63
2022-09-30T23:43:25.842Z,9.65
2022-09-30T23:45:52.535Z,9.62
2022-09-30T23:48:19.223Z,9.68
2022-09-30T23:50:49.640Z,9.76
2022-09-30T23:53:16.379Z,9.76
2022-09-30T23:55:43.144Z,9.69
2022-09-30T23:58:09.781Z,9.71
